createdAt,value
2019-01-10T00:00:28.070Z,-0.30
2019-01-10T00:03:01.156Z,-0.20
2019-01-10T00:05:34.657Z,-0.20
2019-01-10T00:08:13.953Z,-0.10
2019-01-10T00:13:51.701Z,0.00
2019-01-10T00:16:21.565Z,0.10
2019-01-10T00:18:55.659Z,0.10
2019-01-10T00:21:38.093Z,0.10
2019-01-10T00:24:15.832Z,0.00
2019-01-10T00:26:58.109Z,-0.10
2019-01-10T00:29:38.042Z,-0.10
2019-01-10T00:32:09.526Z,-0.10
2019-01-10T00:34:47.073Z,-0.10
2019-01-10T00:37:20.965Z,0.10
2019-01-10T00:40:14.419Z,0.20
2019-01-10T00:42:49.597Z,0.20
2019-01-10T00:45:26.402Z,0.20
2019-01-10T00:47:59.916Z,0.20
2019-01-10T00:50:41.647Z,0.20
2019-01-10T00:53:50.210Z,0.10
2019-01-10T00:56:27.517Z,0.10
2019-01-10T00:59:07.576Z,0.20
2019-01-10T01:01:49.514Z,0.00
2019-01-10T01:04:21.000Z,-0.10
2019-01-10T01:07:13.105Z,-0.20
2019-01-10T01:09:37.701Z,-0.30
2019-01-10T01:12:17.992Z,-0.40
2019-01-10T01:15:03.524Z,-0.50
2019-01-10T01:17:35.319Z,-0.60
2019-01-10T01:20:08.537Z,-0.60
2019-01-10T01:22:42.082Z,-0.40
2019-01-10T01:25:12.811Z,-0.30
2019-01-10T01:27:50.001Z,-0.20
2019-01-10T01:30:46.824Z,-0.20
2019-01-10T01:33:30.815Z,-0.20
2019-01-10T01:36:16.260Z,-0.20
2019-01-10T01:38:57.877Z,-0.40
2019-01-10T01:41:48.310Z,-0.60
2019-01-10T01:46:36.241Z,-0.70
2019-01-10T01:49:07.678Z,-0.70
2019-01-10T01:51:50.324Z,-0.80
2019-01-10T01:54:15.451Z,-0.80
2019-01-10T01:56:45.264Z,-0.80
2019-01-10T01:59:35.152Z,-0.80
2019-01-10T02:02:07.306Z,-0.90
2019-01-10T02:04:45.303Z,-1.00
2019-01-10T02:07:18.681Z,-1.00
2019-01-10T02:09:57.406Z,-0.80
2019-01-10T02:12:27.331Z,-0.70
2019-01-10T02:15:26.559Z,-0.70
2019-01-10T02:17:58.998Z,-0.80
2019-01-10T02:20:47.999Z,-0.70
2019-01-10T02:23:25.661Z,-0.80
2019-01-10T02:26:05.473Z,-0.90
2019-01-10T02:28:54.113Z,-1.10
2019-01-10T02:31:24.400Z,-1.10
2019-01-10T02:34:14.933Z,-1.20
2019-01-10T02:36:41.596Z,-1.30
2019-01-10T02:41:51.619Z,-1.10
2019-01-10T02:47:31.205Z,-1.30
2019-01-10T02:50:07.070Z,-1.30
2019-01-10T02:52:36.606Z,-1.30
2019-01-10T02:55:10.059Z,-1.30
2019-01-10T02:57:39.942Z,-1.20
2019-01-10T03:00:15.830Z,-1.50
2019-01-10T03:02:49.604Z,-1.70
2019-01-10T03:05:37.083Z,-1.70
2019-01-10T03:08:12.014Z,-1.70
2019-01-10T03:10:52.613Z,-1.80
2019-01-10T03:13:36.429Z,-1.90
2019-01-10T03:16:14.789Z,-1.90
2019-01-10T03:18:50.967Z,-1.90
2019-01-10T03:21:30.677Z,-2.00
2019-01-10T03:24:08.309Z,-2.10
2019-01-10T03:26:49.239Z,-2.00
2019-01-10T03:29:36.884Z,-2.10
2019-01-10T03:32:09.585Z,-2.10
2019-01-10T03:34:49.407Z,-2.10
2019-01-10T03:37:26.941Z,-2.10
2019-01-10T03:39:55.680Z,-2.10
2019-01-10T03:42:27.528Z,-2.10
2019-01-10T03:44:58.188Z,-2.20
2019-01-10T03:47:36.805Z,-2.30
2019-01-10T03:50:15.357Z,-2.30
2019-01-10T03:52:57.376Z,-2.30
2019-01-10T03:55:37.468Z,-2.40
2019-01-10T03:58:12.195Z,-2.30
2019-01-10T04:00:51.463Z,-2.30
2019-01-10T04:03:21.230Z,-2.30
2019-01-10T04:05:58.485Z,-2.40
2019-01-10T04:08:36.465Z,-2.30
2019-01-10T04:11:06.662Z,-2.40
2019-01-10T04:13:36.572Z,-2.30
2019-01-10T04:16:19.583Z,-2.40
2019-01-10T04:21:40.895Z,-2.40
2019-01-10T04:24:23.882Z,-2.40
2019-01-10T04:26:55.602Z,-2.30
2019-01-10T04:29:29.821Z,-2.40
2019-01-10T04:32:24.309Z,-2.40
2019-01-10T04:34:39.821Z,-2.50
2019-01-10T04:37:39.435Z,-2.50
2019-01-10T04:40:19.892Z,-2.40
2019-01-10T04:42:56.346Z,-2.40
2019-01-10T04:45:36.609Z,-2.40
2019-01-10T04:48:16.838Z,-2.20
2019-01-10T04:50:56.952Z,-2.20
2019-01-10T04:53:34.359Z,-2.20
2019-01-10T04:56:16.941Z,-2.10
2019-01-10T04:58:58.069Z,-2.10
2019-01-10T05:01:21.168Z,-2.00
2019-01-10T05:03:54.905Z,-2.00
2019-01-10T05:06:36.146Z,-2.00
2019-01-10T05:09:14.365Z,-1.90
2019-01-10T05:11:55.399Z,-1.90
2019-01-10T05:14:57.107Z,-1.80
2019-01-10T05:20:08.462Z,-1.70
2019-01-10T05:22:32.637Z,-1.70
2019-01-10T05:25:14.385Z,-1.60
2019-01-10T05:27:54.138Z,-1.60
2019-01-10T05:30:45.449Z,-1.50
2019-01-10T05:33:15.404Z,-1.50
2019-01-10T05:35:53.302Z,-1.50
2019-01-10T05:38:29.461Z,-1.30
2019-01-10T05:41:20.898Z,-1.30
2019-01-10T05:43:50.610Z,-1.30
2019-01-10T05:46:31.142Z,-1.20
2019-01-10T05:49:14.318Z,-1.20
2019-01-10T05:51:43.139Z,-1.20
2019-01-10T05:54:14.907Z,-1.20
2019-01-10T05:56:44.776Z,-1.30
2019-01-10T05:59:17.643Z,-1.20
2019-01-10T06:01:52.342Z,-1.20
2019-01-10T06:04:24.194Z,-1.20
2019-01-10T06:06:58.069Z,-1.00
2019-01-10T06:09:27.861Z,-1.00
2019-01-10T06:11:58.887Z,-1.00
2019-01-10T06:14:44.413Z,-1.00
2019-01-10T06:17:19.410Z,-1.00
2019-01-10T06:19:50.917Z,-1.10
2019-01-10T06:22:25.552Z,-1.10
2019-01-10T06:25:04.022Z,-1.00
2019-01-10T06:28:01.462Z,-1.00
2019-01-10T06:30:09.411Z,-1.00
2019-01-10T06:33:06.157Z,-0.90
2019-01-10T06:35:31.572Z,-0.90
2019-01-10T06:38:11.894Z,-0.90
2019-01-10T06:41:06.360Z,-0.90
2019-01-10T06:43:29.029Z,-0.80
2019-01-10T06:46:10.230Z,-0.70
2019-01-10T06:48:31.290Z,-0.70
2019-01-10T06:51:01.144Z,-0.70
2019-01-10T06:53:35.706Z,-0.80
2019-01-10T06:56:11.521Z,-0.90
2019-01-10T06:58:43.984Z,-0.80
2019-01-10T07:01:28.071Z,-0.90
2019-01-10T07:04:09.318Z,-0.80
2019-01-10T07:06:53.467Z,-0.90
2019-01-10T07:09:21.983Z,-0.80
2019-01-10T07:11:47.767Z,-0.80
2019-01-10T07:14:17.547Z,-0.70
2019-01-10T07:17:25.660Z,-0.60
2019-01-10T07:19:47.284Z,-0.60
2019-01-10T07:22:25.082Z,-0.70
2019-01-10T07:25:18.640Z,-0.70
2019-01-10T07:27:48.654Z,-0.70
2019-01-10T07:30:35.990Z,-0.80
2019-01-10T07:33:00.913Z,-0.60
2019-01-10T07:35:37.535Z,-0.60
2019-01-10T07:38:08.703Z,-0.60
2019-01-10T07:40:47.810Z,-0.70
2019-01-10T07:43:20.815Z,-0.70
2019-01-10T07:45:52.701Z,-0.70
2019-01-10T07:48:26.739Z,-0.70
2019-01-10T07:51:19.035Z,-0.70
2019-01-10T07:53:50.176Z,-0.80
2019-01-10T07:56:20.072Z,-0.80
2019-01-10T07:58:49.880Z,-0.70
2019-01-10T08:01:25.326Z,-0.70
2019-01-10T08:03:58.007Z,-0.60
2019-01-10T08:06:45.577Z,-0.70
2019-01-10T08:09:29.602Z,-0.70
2019-01-10T08:11:46.898Z,-0.70
2019-01-10T08:14:30.308Z,-0.60
2019-01-10T08:17:26.802Z,-0.60
2019-01-10T08:19:48.306Z,-0.60
2019-01-10T08:22:43.596Z,-0.70
2019-01-10T08:25:00.082Z,-0.70
2019-01-10T08:27:41.244Z,-0.70
2019-01-10T08:30:20.057Z,-0.70
2019-01-10T08:32:55.599Z,-0.60
2019-01-10T08:35:41.132Z,-0.50
2019-01-10T08:38:04.607Z,-0.50
2019-01-10T08:40:34.838Z,-0.40
2019-01-10T08:43:14.486Z,-0.40
2019-01-10T08:45:44.160Z,-0.40
2019-01-10T08:48:25.732Z,-0.40
2019-01-10T08:51:08.376Z,-0.40
2019-01-10T08:53:30.663Z,-0.40
2019-01-10T08:56:02.087Z,-0.50
2019-01-10T08:58:43.701Z,-0.40
2019-01-10T09:01:16.432Z,-0.40
2019-01-10T09:03:55.902Z,-0.40
2019-01-10T09:06:25.690Z,-0.30
2019-01-10T09:08:55.571Z,-0.30
2019-01-10T09:11:30.403Z,-0.30
2019-01-10T09:14:07.796Z,-0.30
2019-01-10T09:16:37.570Z,-0.20
2019-01-10T09:19:16.712Z,-0.10
2019-01-10T09:21:46.145Z,-0.10
2019-01-10T09:24:17.461Z,0.00
2019-01-10T09:26:48.370Z,0.10
2019-01-10T09:29:35.845Z,0.10
2019-01-10T09:32:09.896Z,0.20
2019-01-10T09:34:44.137Z,0.20
2019-01-10T09:37:13.950Z,0.20
2019-01-10T09:39:44.892Z,0.30
2019-01-10T09:42:25.251Z,0.30
2019-01-10T09:44:57.290Z,0.30
2019-01-10T09:47:32.469Z,0.40
2019-01-10T09:50:02.191Z,0.40
2019-01-10T09:52:31.831Z,0.50
2019-01-10T09:55:20.492Z,0.50
2019-01-10T09:57:55.272Z,0.50
2019-01-10T10:02:18.863Z,0.60
2019-01-10T10:03:17.000Z,0.60
2019-01-10T10:05:49.943Z,0.70
2019-01-10T10:08:19.919Z,0.80
2019-01-10T10:11:16.489Z,0.80
2019-01-10T10:13:33.182Z,0.90
2019-01-10T10:16:02.979Z,1.00
2019-01-10T10:18:47.750Z,1.00
2019-01-10T10:21:07.566Z,1.20
2019-01-10T10:23:45.354Z,1.20
2019-01-10T10:26:19.935Z,1.30
2019-01-10T10:28:53.517Z,1.30
2019-01-10T10:31:40.674Z,1.30
2019-01-10T10:34:16.450Z,1.40
2019-01-10T10:36:47.881Z,1.50
2019-01-10T10:39:18.680Z,1.50
2019-01-10T10:41:51.437Z,1.60
2019-01-10T10:44:29.587Z,1.70
2019-01-10T10:47:08.589Z,1.70
2019-01-10T10:49:55.186Z,1.80
2019-01-10T10:52:35.369Z,1.80
2019-01-10T10:55:20.547Z,1.90
2019-01-10T10:57:59.626Z,2.00
2019-01-10T11:00:35.380Z,2.10
2019-01-10T11:03:07.307Z,2.10
2019-01-10T11:05:47.889Z,2.20
2019-01-10T11:08:28.262Z,2.20
2019-01-10T11:11:20.738Z,2.30
2019-01-10T11:13:43.268Z,2.40
2019-01-10T11:16:44.296Z,2.40
2019-01-10T11:19:21.409Z,2.40
2019-01-10T11:22:09.786Z,2.50
2019-01-10T11:24:39.662Z,2.50
2019-01-10T11:27:43.502Z,2.60
2019-01-10T11:30:34.462Z,2.60
2019-01-10T11:33:31.686Z,2.60
2019-01-10T11:36:11.374Z,2.70
2019-01-10T11:38:41.379Z,2.70
2019-01-10T11:41:12.993Z,2.80
2019-01-10T11:43:53.292Z,2.80
2019-01-10T11:46:24.727Z,3.00
2019-01-10T11:49:01.824Z,2.90
2019-01-10T11:51:43.492Z,2.90
2019-01-10T11:54:23.195Z,3.00
2019-01-10T11:57:04.189Z,3.10
2019-01-10T11:59:44.226Z,3.20
2019-01-10T12:02:36.083Z,3.10
2019-01-10T12:04:54.528Z,3.20
2019-01-10T12:07:59.797Z,3.20
2019-01-10T12:10:38.829Z,3.30
2019-01-10T12:13:03.270Z,3.30
2019-01-10T12:16:00.267Z,3.40
2019-01-10T12:18:43.283Z,3.40
2019-01-10T12:21:16.488Z,3.40
2019-01-10T12:23:54.362Z,3.40
2019-01-10T12:26:33.817Z,3.40
2019-01-10T12:28:58.243Z,3.40
2019-01-10T12:31:28.294Z,3.50
2019-01-10T12:34:07.955Z,3.50
2019-01-10T12:36:43.318Z,3.40
2019-01-10T12:39:26.661Z,3.40
2019-01-10T12:42:01.531Z,3.40
2019-01-10T12:44:33.320Z,3.50
2019-01-10T12:47:12.680Z,3.50
2019-01-10T12:49:51.468Z,3.60
2019-01-10T12:52:18.680Z,3.70
2019-01-10T12:54:48.728Z,3.70
2019-01-10T12:57:21.425Z,3.60
2019-01-10T13:00:10.188Z,3.70
2019-01-10T13:02:47.766Z,3.60
2019-01-10T13:05:26.437Z,3.60
2019-01-10T13:08:09.980Z,3.70
2019-01-10T13:10:50.522Z,3.80
2019-01-10T13:13:29.430Z,3.90
2019-01-10T13:16:18.791Z,3.90
2019-01-10T13:18:50.850Z,4.00
2019-01-10T13:21:20.895Z,4.10
2019-01-10T13:23:58.321Z,4.10
2019-01-10T13:26:43.468Z,4.00
2019-01-10T13:29:07.719Z,4.10
2019-01-10T13:31:59.950Z,4.20
2019-01-10T13:34:32.816Z,4.20
2019-01-10T13:37:31.779Z,4.20
2019-01-10T13:40:26.018Z,4.10
2019-01-10T13:42:53.177Z,4.10
2019-01-10T13:45:45.840Z,4.10
2019-01-10T13:47:55.453Z,4.20
2019-01-10T13:50:35.589Z,4.20
2019-01-10T13:53:43.519Z,4.30
2019-01-10T13:56:18.971Z,4.30
2019-01-10T13:59:24.490Z,4.30
2019-01-10T14:02:06.786Z,4.30
2019-01-10T14:04:46.917Z,4.40
2019-01-10T14:07:16.774Z,4.40
2019-01-10T14:09:49.423Z,4.40
2019-01-10T14:12:21.855Z,4.40
2019-01-10T14:14:59.787Z,4.30
2019-01-10T14:17:29.526Z,4.30
2019-01-10T14:20:09.327Z,4.30
2019-01-10T14:22:39.593Z,4.20
2019-01-10T14:25:32.787Z,4.30
2019-01-10T14:28:15.180Z,4.30
2019-01-10T14:31:07.894Z,4.20
2019-01-10T14:33:45.202Z,4.30
2019-01-10T14:36:37.141Z,4.20
2019-01-10T14:39:24.203Z,4.20
2019-01-10T14:42:03.030Z,4.30
2019-01-10T14:44:46.146Z,4.30
2019-01-10T14:47:29.696Z,4.30
2019-01-10T14:50:20.384Z,4.30
2019-01-10T14:53:07.534Z,4.30
2019-01-10T14:56:08.554Z,4.30
2019-01-10T14:58:56.223Z,4.30
2019-01-10T15:04:40.984Z,4.30
2019-01-10T15:07:22.378Z,4.30
2019-01-10T15:10:09.904Z,4.30
2019-01-10T15:13:01.896Z,4.30
2019-01-10T15:15:39.231Z,4.30
2019-01-10T15:18:18.332Z,4.20
2019-01-10T15:21:08.728Z,4.20
2019-01-10T15:23:48.347Z,4.20
2019-01-10T15:26:40.673Z,4.30
2019-01-10T15:29:15.955Z,4.20
2019-01-10T15:32:08.065Z,4.20
2019-01-10T15:34:47.529Z,4.20
2019-01-10T15:37:36.106Z,4.20
2019-01-10T15:40:16.348Z,4.20
2019-01-10T15:42:52.401Z,4.10
2019-01-10T15:51:04.421Z,4.10
2019-01-10T15:53:44.003Z,4.10
2019-01-10T15:56:32.858Z,4.10
2019-01-10T15:59:48.037Z,4.10
2019-01-10T16:02:12.107Z,4.10
2019-01-10T16:04:54.513Z,4.00
2019-01-10T16:07:45.532Z,4.00
2019-01-10T16:10:27.401Z,4.00
2019-01-10T16:13:22.377Z,3.90
2019-01-10T16:16:16.302Z,3.90
2019-01-10T16:19:14.990Z,3.90
2019-01-10T16:21:45.147Z,3.90
2019-01-10T16:24:43.684Z,3.90
2019-01-10T16:27:19.696Z,3.90
2019-01-10T16:30:12.203Z,3.90
2019-01-10T16:32:41.306Z,3.90
2019-01-10T16:35:10.519Z,3.90
2019-01-10T16:38:21.284Z,3.90
2019-01-10T16:41:09.015Z,3.90
2019-01-10T16:43:49.148Z,3.90
2019-01-10T16:46:36.843Z,3.80
2019-01-10T16:49:10.741Z,3.90
2019-01-10T16:51:58.897Z,3.90
2019-01-10T16:54:36.364Z,3.90
2019-01-10T16:57:39.609Z,3.90
2019-01-10T17:00:37.643Z,4.00
2019-01-10T17:03:07.789Z,3.90
2019-01-10T17:05:39.626Z,4.00
2019-01-10T17:08:13.893Z,3.90
2019-01-10T17:10:46.111Z,4.00
2019-01-10T17:13:18.485Z,4.00
2019-01-10T17:16:09.404Z,4.00
2019-01-10T17:18:44.360Z,4.10
2019-01-10T17:24:45.160Z,4.00
2019-01-10T17:28:00.311Z,4.00
2019-01-10T17:30:33.708Z,4.00
2019-01-10T17:33:30.259Z,4.00
2019-01-10T17:36:05.628Z,3.90
2019-01-10T17:38:56.114Z,3.90
2019-01-10T17:41:31.514Z,4.00
2019-01-10T17:44:10.927Z,4.00
2019-01-10T17:46:45.533Z,4.00
2019-01-10T17:50:28.027Z,4.00
2019-01-10T17:52:04.668Z,4.00
2019-01-10T17:55:00.460Z,4.00
2019-01-10T17:57:12.301Z,4.00
2019-01-10T17:59:42.331Z,4.00
2019-01-10T18:05:58.120Z,3.90
2019-01-10T18:09:26.063Z,3.90
2019-01-10T18:12:15.136Z,3.90
2019-01-10T18:17:15.095Z,4.00
2019-01-10T18:19:45.425Z,3.90
2019-01-10T18:22:16.789Z,3.90
2019-01-10T18:24:59.708Z,3.90
2019-01-10T18:27:44.773Z,3.90
2019-01-10T18:30:43.416Z,3.90
2019-01-10T18:33:41.814Z,3.90
2019-01-10T18:36:09.786Z,4.00
2019-01-10T18:38:47.201Z,3.90
2019-01-10T18:41:28.468Z,3.90
2019-01-10T18:44:03.543Z,4.00
2019-01-10T18:46:51.027Z,4.00
2019-01-10T18:49:28.303Z,4.00
2019-01-10T18:52:18.001Z,4.00
2019-01-10T18:55:10.044Z,4.10
2019-01-10T18:57:34.425Z,4.10
2019-01-10T19:00:23.189Z,4.10
2019-01-10T19:03:02.602Z,4.10
2019-01-10T19:06:12.679Z,4.20
2019-01-10T19:08:38.388Z,4.20
2019-01-10T19:11:43.278Z,4.20
2019-01-10T19:14:36.912Z,4.20
2019-01-10T19:17:08.240Z,4.20
2019-01-10T19:19:38.355Z,4.10
2019-01-10T19:22:25.573Z,4.10
2019-01-10T19:25:20.375Z,4.20
2019-01-10T19:28:09.548Z,4.20
2019-01-10T19:30:48.400Z,4.20
2019-01-10T19:33:35.696Z,4.20
2019-01-10T19:36:04.677Z,4.30
2019-01-10T19:42:06.563Z,4.30
2019-01-10T19:44:30.132Z,4.30
2019-01-10T19:47:00.154Z,4.30
2019-01-10T19:49:30.155Z,4.30
2019-01-10T19:52:19.261Z,4.40
2019-01-10T19:55:00.520Z,4.30
2019-01-10T19:57:56.026Z,4.30
2019-01-10T20:00:53.785Z,4.40
2019-01-10T20:03:43.383Z,4.40
2019-01-10T20:06:20.550Z,4.40
2019-01-10T20:08:58.937Z,4.40
2019-01-10T20:11:41.850Z,4.50
2019-01-10T20:14:20.869Z,4.50
2019-01-10T20:16:58.273Z,4.50
2019-01-10T20:20:05.438Z,4.50
2019-01-10T20:22:52.953Z,4.50
2019-01-10T20:25:28.787Z,4.60
2019-01-10T20:28:22.190Z,4.60
2019-01-10T20:31:05.219Z,4.60
2019-01-10T20:33:46.889Z,4.60
2019-01-10T20:36:27.216Z,4.70
2019-01-10T20:39:00.297Z,4.70
2019-01-10T20:41:37.103Z,4.70
2019-01-10T20:44:20.137Z,4.80
2019-01-10T20:47:10.709Z,4.80
2019-01-10T20:52:42.279Z,4.90
2019-01-10T20:55:04.102Z,4.90
2019-01-10T20:57:44.151Z,5.00
2019-01-10T21:00:26.768Z,5.00
2019-01-10T21:03:11.534Z,4.90
2019-01-10T21:05:41.665Z,4.90
2019-01-10T21:08:12.002Z,4.90
2019-01-10T21:10:47.360Z,4.90
2019-01-10T21:13:22.101Z,4.80
2019-01-10T21:16:08.774Z,4.80
2019-01-10T21:18:45.014Z,4.90
2019-01-10T21:21:40.069Z,4.90
2019-01-10T21:24:22.235Z,5.00
2019-01-10T21:26:51.895Z,4.90
2019-01-10T21:29:29.563Z,5.00
2019-01-10T21:32:21.610Z,5.00
2019-01-10T21:34:47.207Z,5.00
2019-01-10T21:37:46.720Z,4.90
2019-01-10T21:40:24.388Z,4.90
2019-01-10T21:43:16.582Z,4.80
2019-01-10T21:46:01.006Z,4.80
2019-01-10T21:55:11.342Z,4.80
2019-01-10T21:59:36.928Z,4.80
2019-01-10T22:02:07.614Z,4.80
2019-01-10T22:04:40.194Z,4.80
2019-01-10T22:07:19.738Z,4.80
2019-01-10T22:09:59.045Z,4.80
2019-01-10T22:12:54.009Z,4.90
2019-01-10T22:15:39.517Z,4.80
2019-01-10T22:18:41.453Z,4.80
2019-01-10T22:21:21.837Z,4.80
2019-01-10T22:24:16.147Z,4.90
2019-01-10T22:26:52.177Z,4.90
2019-01-10T22:29:19.009Z,5.00
2019-01-10T22:32:18.931Z,5.10
2019-01-10T22:34:50.275Z,5.10
2019-01-10T22:37:39.361Z,5.10
2019-01-10T22:40:27.878Z,5.20
2019-01-10T22:42:59.448Z,5.20
2019-01-10T22:45:32.276Z,5.20
2019-01-10T22:48:12.030Z,5.60
2019-01-10T22:50:47.522Z,5.50
2019-01-10T22:53:18.109Z,5.50
2019-01-10T22:55:48.324Z,5.70
2019-01-10T22:58:49.927Z,5.70
2019-01-10T23:01:43.299Z,5.60
2019-01-10T23:04:15.243Z,5.60
2019-01-10T23:06:49.155Z,5.60
2019-01-10T23:09:24.306Z,5.70
2019-01-10T23:11:54.319Z,5.70
2019-01-10T23:14:24.741Z,5.80
2019-01-10T23:17:29.410Z,5.70
2019-01-10T23:20:18.475Z,5.80
2019-01-10T23:22:51.954Z,6.00
2019-01-10T23:25:26.067Z,5.90
2019-01-10T23:27:57.493Z,5.90
2019-01-10T23:30:50.964Z,6.00
2019-01-10T23:33:22.725Z,6.10
2019-01-10T23:36:36.289Z,6.10
2019-01-10T23:39:52.692Z,6.10
2019-01-10T23:42:54.469Z,6.10
2019-01-10T23:45:32.170Z,6.00
2019-01-10T23:51:24.342Z,6.10
2019-01-10T23:54:12.571Z,6.20
2019-01-10T23:56:45.367Z,6.10
2019-01-10T23:59:24.793Z,6.30
